Time;durP1;ratioP1;P1;durP2;ratioP2;P2;SDS_P1;SDS_P2;PMS_P1;PMS_P2;Temp;Humidity;BMP_temperature;BMP_pressure;BME280_temperature;BME280_humidity;BME280_pressure;Samples;Min_cycle;Max_cycle;Signal;HPM_P1;HPM_P2
2023/11/01 03:46:22;;;;;;;1999.90;999.90;;;;;;;;;;5300497;23;20059;-68
2023/11/01 03:48:49;;;;;;;1999.90;999.90;;;;;;;;;;4974550;28;20035;-68
2023/11/01 03:51:15;;;;;;;1999.90;999.90;;;;;;;;;;4966210;28;20023;-68
2023/11/01 03:53:41;;;;;;;1999.90;999.90;;;;;;;;;;4966494;28;20041;-69
2023/11/01 03:56:07;;;;;;;1999.90;999.90;;;;;;;;;;4967630;28;20113;-72
2023/11/01 03:58:34;;;;;;;1999.90;999.90;;;;;;;;;;4968121;28;20015;-71
2023/11/01 04:01:00;;;;;;;1999.90;999.90;;;;;;;;;;4966075;28;20472;-70
2023/11/01 04:03:29;;;;;;;1999.90;999.90;;;;;;;;;;4968862;28;20065;-70
2023/11/01 04:05:55;;;;;;;1999.90;999.90;;;;;;;;;;4966450;28;20085;-72
2023/11/01 04:08:22;;;;;;;1999.90;999.90;;;;;;;;;;4968818;28;20059;-68
2023/11/01 04:10:48;;;;;;;1999.90;999.90;;;;;;;;;;4967340;28;20102;-70
2023/11/01 04:13:14;;;;;;;1999.90;999.90;;;;;;;;;;4967826;28;20042;-71
2023/11/01 04:15:41;;;;;;;1999.90;999.90;;;;;;;;;;4966324;28;20030;-70
2023/11/01 04:18:07;;;;;;;1999.90;999.90;;;;;;;;;;4965743;28;20058;-71
2023/11/01 04:20:33;;;;;;;1999.90;999.90;;;;;;;;;;4967668;28;20045;-67
2023/11/01 04:22:59;;;;;;;1999.90;999.90;;;;;;;;;;4965938;28;20105;-72
2023/11/01 04:25:25;;;;;;;1999.90;999.90;;;;;;;;;;4968808;28;20031;-72
2023/11/01 04:27:51;;;;;;;1999.90;999.90;;;;;;;;;;4968717;28;20027;-69
2023/11/01 04:30:18;;;;;;;1999.90;999.90;;;;;;;;;;4965939;28;20031;-71
2023/11/01 04:32:44;;;;;;;1999.90;999.90;;;;;;;;;;4968160;28;20074;-67
2023/11/01 04:35:10;;;;;;;1999.90;999.90;;;;;;;;;;4966959;28;20387;-70
2023/11/01 04:37:37;;;;;;;1999.90;999.90;;;;;;;;;;4967883;28;20030;-71
2023/11/01 04:40:04;;;;;;;1999.90;999.90;;;;;;;;;;4965884;28;20579;-69
2023/11/01 04:42:30;;;;;;;1999.90;999.90;;;;;;;;;;4966305;28;20530;-72
2023/11/01 04:44:57;;;;;;;1999.90;999.90;;;;;;;;;;4967406;28;20082;-72
2023/11/01 04:47:23;;;;;;;1999.90;999.90;;;;;;;;;;4949986;28;20415;-72
2023/11/01 04:49:49;;;;;;;1999.90;999.90;;;;;;;;;;4945012;29;20028;-71
2023/11/01 04:52:15;;;;;;;1999.90;999.90;;;;;;;;;;4947555;29;20034;-71
2023/11/01 04:54:41;;;;;;;1999.90;999.90;;;;;;;;;;4946033;29;20024;-70
2023/11/01 04:57:07;;;;;;;1999.90;999.90;;;;;;;;;;4948456;29;20431;-71
2023/11/01 04:59:33;;;;;;;1999.90;999.90;;;;;;;;;;4944862;29;20035;-68
2023/11/01 05:02:00;;;;;;;1999.90;999.90;;;;;;;;;;4948171;29;20019;-71
2023/11/01 05:04:26;;;;;;;1999.90;999.90;;;;;;;;;;4947327;29;20054;-72
2023/11/01 05:06:52;;;;;;;1999.90;999.90;;;;;;;;;;4947124;29;20375;-72
2023/11/01 05:09:18;;;;;;;1999.90;999.90;;;;;;;;;;4945675;29;20039;-72
2023/11/01 05:11:44;;;;;;;1999.90;999.90;;;;;;;;;;4948101;29;20020;-71
2023/11/01 05:14:10;;;;;;;1999.90;999.90;;;;;;;;;;4946387;29;20403;-72
2023/11/01 05:16:36;;;;;;;1999.90;999.90;;;;;;;;;;4945937;29;20402;-72
2023/11/01 05:19:08;;;;;;;1999.90;999.90;;;;;;;;;;4943710;29;20455;-72
2023/11/01 05:21:34;;;;;;;1999.90;999.90;;;;;;;;;;4943085;28;20027;-72
2023/11/01 05:24:00;;;;;;;1999.90;999.90;;;;;;;;;;4944813;29;20049;-72
2023/11/01 05:26:29;;;;;;;1999.90;999.90;;;;;;;;;;4941979;29;20028;-71
2023/11/01 05:28:56;;;;;;;1999.90;999.90;;;;;;;;;;4943015;28;20039;-70
2023/11/01 05:31:22;;;;;;;1999.90;999.90;;;;;;;;;;4944626;29;20431;-73
2023/11/01 05:33:48;;;;;;;1999.90;999.90;;;;;;;;;;4941589;29;20028;-72
2023/11/01 05:36:14;;;;;;;1999.90;999.90;;;;;;;;;;4942851;28;20451;-72
2023/11/01 05:38:40;;;;;;;1999.90;999.90;;;;;;;;;;4942840;29;20414;-71
2023/11/01 05:41:08;;;;;;;1999.90;999.90;;;;;;;;;;4942931;29;20047;-72
2023/11/01 05:43:35;;;;;;;1999.90;999.90;;;;;;;;;;4942819;28;20027;-68
2023/11/01 05:46:01;;;;;;;1999.90;999.90;;;;;;;;;;4944072;29;20054;-69
2023/11/01 05:48:27;;;;;;;1999.90;999.90;;;;;;;;;;4943047;29;20052;-69
2023/11/01 05:50:54;;;;;;;1999.90;999.90;;;;;;;;;;4943049;28;20471;-71
2023/11/01 05:53:20;;;;;;;1999.90;999.90;;;;;;;;;;4942111;29;20019;-70
2023/11/01 05:55:46;;;;;;;1999.90;999.90;;;;;;;;;;4943735;28;20062;-72
2023/11/01 05:58:12;;;;;;;1999.90;999.90;;;;;;;;;;4943410;29;20031;-70
2023/11/01 06:00:39;;;;;;;1999.90;999.90;;;;;;;;;;4942117;28;20059;-71
2023/11/01 06:03:08;;;;;;;1999.90;999.90;;;;;;;;;;4943583;28;20506;-70
2023/11/01 06:05:38;;;;;;;1999.90;999.90;;;;;;;;;;4943517;29;20016;-71
2023/11/01 06:08:06;;;;;;;1999.90;999.90;;;;;;;;;;4941731;28;20069;-71
2023/11/01 06:10:32;;;;;;;1999.90;999.90;;;;;;;;;;4942373;28;20011;-70
2023/11/01 06:12:58;;;;;;;1999.90;999.90;;;;;;;;;;4943915;29;20082;-71
2023/11/01 06:15:24;;;;;;;1999.90;999.90;;;;;;;;;;4941978;29;20027;-70
2023/11/01 06:17:51;;;;;;;1999.90;999.90;;;;;;;;;;4942632;28;20035;-70
2023/11/01 06:20:17;;;;;;;1999.90;999.90;;;;;;;;;;4943737;29;20024;-71
2023/11/01 06:22:43;;;;;;;1999.90;999.90;;;;;;;;;;4941916;29;20070;-71
2023/11/01 06:25:10;;;;;;;1999.90;999.90;;;;;;;;;;4945718;29;20111;-71
2023/11/01 06:27:36;;;;;;;1999.90;999.90;;;;;;;;;;4944429;28;20023;-70
2023/11/01 06:30:07;;;;;;;1999.90;999.90;;;;;;;;;;4950653;29;20082;-71
2023/11/01 06:32:35;;;;;;;1999.90;999.90;;;;;;;;;;4945194;28;20015;-71
2023/11/01 06:35:01;;;;;;;1999.90;999.90;;;;;;;;;;4943437;29;20066;-71
2023/11/01 06:37:27;;;;;;;1999.90;999.90;;;;;;;;;;4941883;29;20467;-71
2023/11/01 06:39:54;;;;;;;1999.90;999.90;;;;;;;;;;4942377;28;20497;-71
2023/11/01 06:42:20;;;;;;;1999.90;999.90;;;;;;;;;;4943185;29;20111;-71
2023/11/01 06:44:46;;;;;;;1999.90;999.90;;;;;;;;;;4941496;28;20125;-70
2023/11/01 06:47:12;;;;;;;1999.90;999.90;;;;;;;;;;4942739;28;20105;-71
2023/11/01 06:49:38;;;;;;;1999.90;999.90;;;;;;;;;;4942811;29;20514;-72
2023/11/01 06:52:07;;;;;;;1999.90;999.90;;;;;;;;;;4941220;28;20031;-71
2023/11/01 06:54:34;;;;;;;1999.90;999.90;;;;;;;;;;4942913;28;20414;-71
2023/11/01 06:57:00;;;;;;;1999.90;999.90;;;;;;;;;;4943183;29;20107;-73
2023/11/01 06:59:26;;;;;;;1999.90;999.90;;;;;;;;;;4943442;28;20039;-71
2023/11/01 07:01:52;;;;;;;1999.90;999.90;;;;;;;;;;4944286;28;20061;-71
2023/11/01 07:04:18;;;;;;;1999.90;999.90;;;;;;;;;;4945007;29;20034;-74
2023/11/01 07:06:44;;;;;;;1999.90;999.90;;;;;;;;;;4944092;29;20055;-74
2023/11/01 07:09:10;;;;;;;1999.90;999.90;;;;;;;;;;4943391;29;20034;-71
2023/11/01 07:11:37;;;;;;;1999.90;999.90;;;;;;;;;;4943963;29;20082;-71
2023/11/01 07:14:04;;;;;;;1999.90;999.90;;;;;;;;;;4945978;29;20094;-71
2023/11/01 07:16:31;;;;;;;1999.90;999.90;;;;;;;;;;4943626;28;20032;-72
2023/11/01 07:18:58;;;;;;;1999.90;999.90;;;;;;;;;;4946724;28;20498;-70
2023/11/01 07:21:24;;;;;;;1999.90;999.90;;;;;;;;;;4942050;28;20030;-70
2023/11/01 07:23:50;;;;;;;1999.90;999.90;;;;;;;;;;4952502;29;20491;-69
2023/11/01 07:26:16;;;;;;;1999.90;999.90;;;;;;;;;;4948773;29;20066;-69
2023/11/01 07:28:44;;;;;;;1999.90;999.90;;;;;;;;;;4950627;29;20039;-70
2023/11/01 07:31:10;;;;;;;1999.90;999.90;;;;;;;;;;4950774;28;20027;-72
2023/11/01 07:33:42;;;;;;;1999.90;999.90;;;;;;;;;;4948892;29;20035;-70
2023/11/01 07:36:08;;;;;;;1999.90;999.90;;;;;;;;;;4945230;29;20034;-64
2023/11/01 07:38:34;;;;;;;1999.90;999.90;;;;;;;;;;4945188;28;20146;-64
2023/11/01 07:41:01;;;;;;;1999.90;999.90;;;;;;;;;;4946367;29;20039;-66
2023/11/01 07:43:27;;;;;;;1999.90;999.90;;;;;;;;;;4944451;29;20030;-65
2023/11/01 07:45:53;;;;;;;1999.90;999.90;;;;;;;;;;4942410;28;20110;-63
2023/11/01 07:48:19;;;;;;;1999.90;999.90;;;;;;;;;;4943668;29;20051;-68
2023/11/01 07:50:45;;;;;;;1999.90;999.90;;;;;;;;;;4942516;29;20027;-69
2023/11/01 07:53:12;;;;;;;1999.90;999.90;;;;;;;;;;4949043;28;20110;-69
2023/11/01 07:55:38;;;;;;;1999.90;999.90;;;;;;;;;;4946967;29;20038;-65
2023/11/01 07:58:04;;;;;;;1999.90;999.90;;;;;;;;;;4949121;29;20035;-68
2023/11/01 08:00:30;;;;;;;1999.90;999.90;;;;;;;;;;4947814;29;20029;-63
2023/11/01 08:02:56;;;;;;;1999.90;999.90;;;;;;;;;;4951177;29;20035;-63
2023/11/01 08:05:22;;;;;;;1999.90;999.90;;;;;;;;;;4951695;29;20043;-69
2023/11/01 08:07:49;;;;;;;1999.90;999.90;;;;;;;;;;4948419;29;20040;-70
2023/11/01 08:10:15;;;;;;;1999.90;999.90;;;;;;;;;;4948056;29;20416;-63
2023/11/01 08:12:41;;;;;;;1999.90;999.90;;;;;;;;;;4954257;29;20087;-64
2023/11/01 08:15:07;;;;;;;1999.90;999.90;;;;;;;;;;4949753;29;20462;-64
2023/11/01 08:17:33;;;;;;;1999.90;999.90;;;;;;;;;;4947715;29;20491;-64
2023/11/01 08:19:59;;;;;;;1999.90;999.90;;;;;;;;;;4954355;29;20502;-63
2023/11/01 08:22:26;;;;;;;1999.90;999.90;;;;;;;;;;4944684;29;20375;-64
2023/11/01 08:24:52;;;;;;;1999.90;999.90;;;;;;;;;;4939393;29;20038;-63
2023/11/01 08:27:18;;;;;;;1999.90;999.90;;;;;;;;;;4944587;29;20043;-63
2023/11/01 08:29:44;;;;;;;1999.90;999.90;;;;;;;;;;4946394;29;20078;-65
2023/11/01 08:32:11;;;;;;;1999.90;999.90;;;;;;;;;;4945171;28;20038;-64
2023/11/01 08:34:37;;;;;;;1999.90;999.90;;;;;;;;;;4946024;29;20027;-63
2023/11/01 08:37:06;;;;;;;1999.90;999.90;;;;;;;;;;4947937;29;20150;-68
2023/11/01 08:39:32;;;;;;;1999.90;999.90;;;;;;;;;;4952384;29;20023;-66
2023/11/01 08:41:58;;;;;;;1999.90;999.90;;;;;;;;;;4954475;29;20114;-69
2023/11/01 08:44:27;;;;;;;1999.90;999.90;;;;;;;;;;4955175;28;20031;-68
2023/11/01 08:46:53;;;;;;;1999.90;999.90;;;;;;;;;;4959735;28;20134;-65
2023/11/01 08:49:20;;;;;;;1999.90;999.90;;;;;;;;;;4954360;29;20067;-64
2023/11/01 08:51:48;;;;;;;1999.90;999.90;;;;;;;;;;4956794;28;20039;-64
2023/11/01 08:54:16;;;;;;;1999.90;999.90;;;;;;;;;;4966246;28;20023;-66
2023/11/01 08:56:42;;;;;;;1999.90;999.90;;;;;;;;;;4968548;28;20015;-64
2023/11/01 08:59:08;;;;;;;1999.90;999.90;;;;;;;;;;4960048;28;20522;-69
2023/11/01 09:01:34;;;;;;;1999.90;999.90;;;;;;;;;;4955015;29;20023;-70
2023/11/01 09:04:00;;;;;;;1999.90;999.90;;;;;;;;;;4954273;29;20031;-68
2023/11/01 09:06:27;;;;;;;1999.90;999.90;;;;;;;;;;4954234;29;20110;-65
2023/11/01 09:08:53;;;;;;;1999.90;999.90;;;;;;;;;;4954025;28;20039;-72
2023/11/01 09:11:23;;;;;;;1999.90;999.90;;;;;;;;;;4949821;29;20024;-65
2023/11/01 09:13:49;;;;;;;1999.90;999.90;;;;;;;;;;4949366;29;20027;-68
2023/11/01 09:16:18;;;;;;;1999.90;999.90;;;;;;;;;;4947108;28;20031;-64
2023/11/01 09:18:44;;;;;;;1999.90;999.90;;;;;;;;;;4948170;28;20027;-70
2023/11/01 09:21:10;;;;;;;1999.90;999.90;;;;;;;;;;4952607;28;20043;-71
2023/11/01 09:23:36;;;;;;;1999.90;999.90;;;;;;;;;;4951724;29;20458;-64
2023/11/01 09:26:02;;;;;;;1999.90;999.90;;;;;;;;;;4953961;29;20476;-68
2023/11/01 09:28:29;;;;;;;1999.90;999.90;;;;;;;;;;4953802;28;20041;-71
2023/11/01 09:30:55;;;;;;;1999.90;999.90;;;;;;;;;;4953967;28;20051;-68
2023/11/01 09:33:21;;;;;;;1999.90;999.90;;;;;;;;;;4953319;29;20471;-66
2023/11/01 09:35:47;;;;;;;1999.90;999.90;;;;;;;;;;4952394;28;20037;-64
2023/11/01 09:38:13;;;;;;;1999.90;999.90;;;;;;;;;;4953654;28;20031;-70
2023/11/01 09:40:39;;;;;;;1999.90;999.90;;;;;;;;;;4946141;28;20428;-63
2023/11/01 09:43:09;;;;;;;1999.90;999.90;;;;;;;;;;4955692;28;20038;-70
2023/11/01 09:45:38;;;;;;;1999.90;999.90;;;;;;;;;;4970289;28;20103;-68
2023/11/01 09:48:05;;;;;;;1999.90;999.90;;;;;;;;;;4970574;28;20563;-66
2023/11/01 09:50:37;;;;;;;1999.90;999.90;;;;;;;;;;4962827;28;20042;-68
2023/11/01 09:53:06;;;;;;;1999.90;999.90;;;;;;;;;;4949488;29;20038;-73
2023/11/01 09:55:39;;;;;;;1999.90;999.90;;;;;;;;;;4958352;28;20023;-65
2023/11/01 09:58:06;;;;;;;1999.90;999.90;;;;;;;;;;4953505;28;20473;-70
2023/11/01 10:00:33;;;;;;;1999.90;999.90;;;;;;;;;;4953292;28;20390;-66
2023/11/01 10:02:59;;;;;;;1999.90;999.90;;;;;;;;;;4952956;28;20027;-69
2023/11/01 10:05:25;;;;;;;1999.90;999.90;;;;;;;;;;4951112;28;20380;-69
2023/11/01 10:07:51;;;;;;;1999.90;999.90;;;;;;;;;;4943397;29;20483;-65
2023/11/01 10:10:18;;;;;;;1999.90;999.90;;;;;;;;;;4946384;28;20475;-73
2023/11/01 10:12:45;;;;;;;1999.90;999.90;;;;;;;;;;4952821;29;20038;-71
2023/11/01 10:15:21;;;;;;;1999.90;999.90;;;;;;;;;;4947333;28;20119;-65
2023/11/01 10:17:47;;;;;;;1999.90;999.90;;;;;;;;;;4938720;29;20115;-68
2023/11/01 10:20:24;;;;;;;1999.90;999.90;;;;;;;;;;4933412;29;20060;-73
2023/11/01 10:22:50;;;;;;;1999.90;999.90;;;;;;;;;;4938928;29;20027;-70
2023/11/01 10:25:19;;;;;;;1999.90;999.90;;;;;;;;;;4943208;28;20083;-72
2023/11/01 10:27:45;;;;;;;1999.90;999.90;;;;;;;;;;4944010;28;20495;-68
2023/11/01 10:30:11;;;;;;;1999.90;999.90;;;;;;;;;;4945211;28;20023;-70
2023/11/01 10:32:37;;;;;;;1999.90;999.90;;;;;;;;;;4946411;29;20377;-69
2023/11/01 10:35:10;;;;;;;1999.90;999.90;;;;;;;;;;4944322;28;20023;-71
2023/11/01 10:37:36;;;;;;;1999.90;999.90;;;;;;;;;;4944306;29;20030;-70
2023/11/01 10:40:06;;;;;;;1999.90;999.90;;;;;;;;;;4940352;29;20391;-72
2023/11/01 10:42:34;;;;;;;1999.90;999.90;;;;;;;;;;4949215;28;20106;-76
2023/11/01 10:45:00;;;;;;;1999.90;999.90;;;;;;;;;;4940264;29;20035;-64
2023/11/01 10:47:26;;;;;;;1999.90;999.90;;;;;;;;;;4943432;29;20091;-74
2023/11/01 10:49:55;;;;;;;1999.90;999.90;;;;;;;;;;4942813;29;20054;-64
2023/11/01 10:52:22;;;;;;;1999.90;999.90;;;;;;;;;;4935218;29;20027;-64
2023/11/01 10:54:49;;;;;;;1999.90;999.90;;;;;;;;;;4942020;29;20090;-70
2023/11/01 10:57:15;;;;;;;1999.90;999.90;;;;;;;;;;4956275;29;20074;-74
2023/11/01 10:59:50;;;;;;;1999.90;999.90;;;;;;;;;;4953262;29;20055;-73
2023/11/01 11:02:22;;;;;;;1999.90;999.90;;;;;;;;;;4955043;28;20031;-75
2023/11/01 11:04:49;;;;;;;1999.90;999.90;;;;;;;;;;4934889;29;20395;-69
2023/11/01 11:07:19;;;;;;;1999.90;999.90;;;;;;;;;;4943384;29;20086;-65
2023/11/01 11:09:46;;;;;;;1999.90;999.90;;;;;;;;;;4945349;28;20034;-73
2023/11/01 11:12:13;;;;;;;1999.90;999.90;;;;;;;;;;4955234;29;20031;-73
2023/11/01 11:14:39;;;;;;;1999.90;999.90;;;;;;;;;;4950115;28;20070;-72
2023/11/01 11:17:06;;;;;;;1999.90;999.90;;;;;;;;;;4956193;28;20037;-65
2023/11/01 11:19:52;;;;;;;1999.90;999.90;;;;;;;;;;4955979;28;20042;-64
2023/11/01 11:22:18;;;;;;;1999.90;999.90;;;;;;;;;;4955674;28;20152;-73
2023/11/01 11:24:46;;;;;;;1999.90;999.90;;;;;;;;;;4955777;28;20038;-73
2023/11/01 11:27:51;;;;;;;1999.90;999.90;;;;;;;;;;4955186;28;20023;-64
2023/11/01 11:30:37;;;;;;;1999.90;999.90;;;;;;;;;;4917144;29;20038;-62
2023/11/01 11:33:10;;;;;;;1999.90;999.90;;;;;;;;;;4932648;29;20035;-74
2023/11/01 11:35:37;;;;;;;1999.90;999.90;;;;;;;;;;4928088;29;20072;-64
2023/11/01 11:38:21;;;;;;;1999.90;999.90;;;;;;;;;;4915241;29;20032;-71
2023/11/01 11:41:07;;;;;;;1999.90;999.90;;;;;;;;;;4915103;28;20451;-64
2023/11/01 11:43:52;;;;;;;1999.90;999.90;;;;;;;;;;4915302;29;20028;-64
2023/11/01 11:46:50;;;;;;;1999.90;999.90;;;;;;;;;;4914322;29;20090;-64
2023/11/01 11:49:26;;;;;;;1999.90;999.90;;;;;;;;;;4858703;29;20042;-64
2023/11/01 11:52:03;;;;;;;1999.90;999.90;;;;;;;;;;4858936;29;20641;-64
2023/11/01 11:54:30;;;;;;;1999.90;999.90;;;;;;;;;;4858552;29;20041;-64
2023/11/01 11:57:02;;;;;;;1999.90;999.90;;;;;;;;;;4858871;29;20107;-65
2023/11/01 11:59:28;;;;;;;1999.90;999.90;;;;;;;;;;4858890;29;20081;-67
2023/11/01 12:02:05;;;;;;;1999.90;999.90;;;;;;;;;;4874943;29;20037;-72
2023/11/01 12:04:33;;;;;;;1999.90;999.90;;;;;;;;;;4877169;29;20485;-73
2023/11/01 12:06:59;;;;;;;1999.90;999.90;;;;;;;;;;4876223;29;20037;-71
2023/11/01 12:09:25;;;;;;;1999.90;999.90;;;;;;;;;;4877078;29;20616;-67
2023/11/01 12:11:55;;;;;;;1999.90;999.90;;;;;;;;;;4877280;29;20037;-65
2023/11/01 12:14:24;;;;;;;1999.90;999.90;;;;;;;;;;4877370;29;20497;-72
2023/11/01 12:16:51;;;;;;;1999.90;999.90;;;;;;;;;;4876808;29;20033;-71
2023/11/01 12:19:24;;;;;;;1999.90;999.90;;;;;;;;;;4876863;29;20049;-63
2023/11/01 12:21:50;;;;;;;1999.90;999.90;;;;;;;;;;4876761;29;20041;-72
2023/11/01 12:24:17;;;;;;;1999.90;999.90;;;;;;;;;;4891342;29;20115;-67
2023/11/01 12:27:04;;;;;;;1999.90;999.90;;;;;;;;;;4935745;29;20035;-73
2023/11/01 12:29:33;;;;;;;1999.90;999.90;;;;;;;;;;4935897;29;20114;-72
2023/11/01 12:32:00;;;;;;;1999.90;999.90;;;;;;;;;;4935533;29;20028;-63
2023/11/01 12:34:26;;;;;;;1999.90;999.90;;;;;;;;;;4935244;29;20091;-64
2023/11/01 12:37:05;;;;;;;1999.90;999.90;;;;;;;;;;4935391;29;20028;-69
2023/11/01 12:39:32;;;;;;;1999.90;999.90;;;;;;;;;;4935244;29;20079;-64
2023/11/01 12:42:18;;;;;;;1999.90;999.90;;;;;;;;;;4935399;29;20095;-68
2023/11/01 12:44:44;;;;;;;1999.90;999.90;;;;;;;;;;4934982;29;20488;-69
2023/11/01 12:47:10;;;;;;;1999.90;999.90;;;;;;;;;;4935228;29;20599;-71
2023/11/01 12:49:40;;;;;;;1999.90;999.90;;;;;;;;;;4935613;29;20095;-71
2023/11/01 12:52:06;;;;;;;1999.90;999.90;;;;;;;;;;4935209;29;20020;-66
2023/11/01 12:54:32;;;;;;;1999.90;999.90;;;;;;;;;;4934472;29;20083;-65
2023/11/01 12:56:59;;;;;;;1999.90;999.90;;;;;;;;;;4935353;29;20035;-68
2023/11/01 12:59:25;;;;;;;1999.90;999.90;;;;;;;;;;4934883;29;20034;-64
2023/11/01 13:01:51;;;;;;;1999.90;999.90;;;;;;;;;;4934895;29;20032;-69
2023/11/01 13:04:17;;;;;;;1999.90;999.90;;;;;;;;;;4935033;29;20086;-70
2023/11/01 13:06:44;;;;;;;1999.90;999.90;;;;;;;;;;4935081;29;20036;-70
2023/11/01 13:09:13;;;;;;;1999.90;999.90;;;;;;;;;;4935283;29;20059;-71
2023/11/01 13:11:39;;;;;;;1999.90;999.90;;;;;;;;;;4935078;29;20023;-68
2023/11/01 13:14:05;;;;;;;1999.90;999.90;;;;;;;;;;4934141;29;20031;-72
2023/11/01 13:16:31;;;;;;;1999.90;999.90;;;;;;;;;;4934578;29;20032;-67
2023/11/01 13:18:57;;;;;;;1999.90;999.90;;;;;;;;;;4934614;29;20031;-72
2023/11/01 13:21:23;;;;;;;1999.90;999.90;;;;;;;;;;4934944;29;20034;-72
2023/11/01 13:23:49;;;;;;;1999.90;999.90;;;;;;;;;;4934719;29;20031;-73
2023/11/01 13:26:15;;;;;;;1999.90;999.90;;;;;;;;;;4934178;29;20074;-71
2023/11/01 13:28:41;;;;;;;1999.90;999.90;;;;;;;;;;4934508;29;20044;-71
2023/11/01 13:31:07;;;;;;;1999.90;999.90;;;;;;;;;;4934593;29;20031;-65
2023/11/01 13:33:33;;;;;;;1999.90;999.90;;;;;;;;;;4934517;29;20163;-67
2023/11/01 13:36:00;;;;;;;1999.90;999.90;;;;;;;;;;4934149;29;20530;-71
2023/11/01 13:38:26;;;;;;;1999.90;999.90;;;;;;;;;;4934481;29;20475;-74
2023/11/01 13:40:52;;;;;;;1999.90;999.90;;;;;;;;;;4934148;29;20039;-68
2023/11/01 13:43:18;;;;;;;1999.90;999.90;;;;;;;;;;4934510;29;20036;-65
2023/11/01 13:45:45;;;;;;;1999.90;999.90;;;;;;;;;;4934278;29;20024;-64
2023/11/01 13:48:11;;;;;;;1999.90;999.90;;;;;;;;;;4934323;29;20111;-66
2023/11/01 13:50:41;;;;;;;1999.90;999.90;;;;;;;;;;4933971;29;20024;-64
2023/11/01 13:53:08;;;;;;;1999.90;999.90;;;;;;;;;;4933983;29;20056;-69
2023/11/01 13:55:35;;;;;;;1999.90;999.90;;;;;;;;;;4933965;29;20023;-66
2023/11/01 13:58:01;;;;;;;1999.90;999.90;;;;;;;;;;4934022;29;20041;-64
2023/11/01 14:00:27;;;;;;;1999.90;999.90;;;;;;;;;;4933898;29;20098;-62
2023/11/01 14:02:53;;;;;;;1999.90;999.90;;;;;;;;;;4932380;29;20063;-67
2023/11/01 14:05:19;;;;;;;1999.90;999.90;;;;;;;;;;4933689;29;20028;-62
2023/11/01 14:07:45;;;;;;;1999.90;999.90;;;;;;;;;;4933513;29;20036;-71
2023/11/01 14:10:11;;;;;;;1999.90;999.90;;;;;;;;;;4933745;29;20028;-71
2023/11/01 14:12:38;;;;;;;1999.90;999.90;;;;;;;;;;4933455;29;20036;-69
2023/11/01 14:15:05;;;;;;;1999.90;999.90;;;;;;;;;;4933570;29;20031;-64
2023/11/01 14:17:33;;;;;;;1999.90;999.90;;;;;;;;;;4933775;29;20036;-70
2023/11/01 14:19:59;;;;;;;1999.90;999.90;;;;;;;;;;4933759;29;20456;-68
2023/11/01 14:22:25;;;;;;;1999.90;999.90;;;;;;;;;;4933203;29;20126;-72
2023/11/01 14:24:51;;;;;;;1999.90;999.90;;;;;;;;;;4933489;29;20019;-70
2023/11/01 14:27:17;;;;;;;1999.90;999.90;;;;;;;;;;4933470;29;20638;-65
2023/11/01 14:29:43;;;;;;;1999.90;999.90;;;;;;;;;;4932715;29;20522;-68
2023/11/01 14:32:09;;;;;;;1999.90;999.90;;;;;;;;;;4932992;29;20044;-62
2023/11/01 14:34:35;;;;;;;1999.90;999.90;;;;;;;;;;4932967;29;20036;-68
2023/11/01 14:37:01;;;;;;;1999.90;999.90;;;;;;;;;;4933259;29;20031;-69
2023/11/01 14:39:27;;;;;;;1999.90;999.90;;;;;;;;;;4933330;29;20115;-70
2023/11/01 14:41:55;;;;;;;1999.90;999.90;;;;;;;;;;4933009;29;20058;-69
2023/11/01 14:44:21;;;;;;;1999.90;999.90;;;;;;;;;;4932193;29;20055;-66
2023/11/01 14:46:47;;;;;;;1999.90;999.90;;;;;;;;;;4950459;29;20051;-71
2023/11/01 14:49:14;;;;;;;1999.90;999.90;;;;;;;;;;4952325;28;20039;-69
2023/11/01 14:51:43;;;;;;;1999.90;999.90;;;;;;;;;;4944838;28;20031;-65
2023/11/01 14:54:09;;;;;;;1999.90;999.90;;;;;;;;;;4932984;29;20511;-70
2023/11/01 14:56:35;;;;;;;1999.90;999.90;;;;;;;;;;4943105;29;20372;-66
2023/11/01 14:59:01;;;;;;;1999.90;999.90;;;;;;;;;;4941553;29;20443;-67
2023/11/01 15:01:27;;;;;;;1999.90;999.90;;;;;;;;;;4943296;29;20066;-67
2023/11/01 15:03:53;;;;;;;1999.90;999.90;;;;;;;;;;4943652;29;20064;-72
2023/11/01 15:06:19;;;;;;;1999.90;999.90;;;;;;;;;;4941773;29;20360;-70
2023/11/01 15:08:45;;;;;;;1999.90;999.90;;;;;;;;;;4939814;29;20078;-66
2023/11/01 15:11:11;;;;;;;1999.90;999.90;;;;;;;;;;4940691;28;20545;-68
2023/11/01 15:13:38;;;;;;;1999.90;999.90;;;;;;;;;;4942751;29;20035;-65
2023/11/01 15:16:04;;;;;;;1999.90;999.90;;;;;;;;;;4935043;28;20380;-68
2023/11/01 15:18:30;;;;;;;1999.90;999.90;;;;;;;;;;4939490;29;20154;-64
2023/11/01 15:20:56;;;;;;;1999.90;999.90;;;;;;;;;;4956307;29;20104;-67
2023/11/01 15:23:22;;;;;;;1999.90;999.90;;;;;;;;;;4943166;28;20422;-66
2023/11/01 15:25:48;;;;;;;1999.90;999.90;;;;;;;;;;4942761;29;20162;-64
2023/11/01 15:28:14;;;;;;;1999.90;999.90;;;;;;;;;;4941639;29;20031;-66
2023/11/01 15:30:41;;;;;;;1999.90;999.90;;;;;;;;;;4940786;29;20019;-64
2023/11/01 15:33:07;;;;;;;1999.90;999.90;;;;;;;;;;4937778;29;20027;-71
2023/11/01 15:35:33;;;;;;;1999.90;999.90;;;;;;;;;;4939876;29;20434;-65
2023/11/01 15:37:59;;;;;;;1999.90;999.90;;;;;;;;;;4940702;29;20466;-70
2023/11/01 15:40:25;;;;;;;1999.90;999.90;;;;;;;;;;4941889;29;20083;-67
2023/11/01 15:42:51;;;;;;;1999.90;999.90;;;;;;;;;;4945368;28;20544;-70
2023/11/01 15:45:17;;;;;;;1999.90;999.90;;;;;;;;;;4944328;28;20106;-72
2023/11/01 15:47:43;;;;;;;1999.90;999.90;;;;;;;;;;4945793;28;20047;-66
2023/11/01 15:50:10;;;;;;;1999.90;999.90;;;;;;;;;;4945789;29;20032;-68
2023/11/01 15:52:36;;;;;;;1999.90;999.90;;;;;;;;;;4944611;28;20030;-73
2023/11/01 15:55:03;;;;;;;1999.90;999.90;;;;;;;;;;4945929;28;20483;-66
2023/11/01 15:57:29;;;;;;;1999.90;999.90;;;;;;;;;;4938858;29;20024;-69
2023/11/01 15:59:55;;;;;;;1999.90;999.90;;;;;;;;;;4947561;29;20031;-65
2023/11/01 16:02:21;;;;;;;1999.90;999.90;;;;;;;;;;4955594;28;20423;-69
2023/11/01 16:04:47;;;;;;;1999.90;999.90;;;;;;;;;;4946801;28;20472;-69
2023/11/01 16:07:13;;;;;;;1999.90;999.90;;;;;;;;;;4936528;29;20043;-68
2023/11/01 16:09:40;;;;;;;1999.90;999.90;;;;;;;;;;4946349;29;20082;-66
2023/11/01 16:12:07;;;;;;;1999.90;999.90;;;;;;;;;;4955224;28;20086;-67
2023/11/01 16:14:33;;;;;;;1999.90;999.90;;;;;;;;;;4953653;29;20541;-68
2023/11/01 16:17:00;;;;;;;1999.90;999.90;;;;;;;;;;4943879;29;20028;-68
2023/11/01 16:19:26;;;;;;;1999.90;999.90;;;;;;;;;;4942950;28;20038;-69
2023/11/01 16:21:52;;;;;;;1999.90;999.90;;;;;;;;;;4954816;28;20103;-71
2023/11/01 16:24:18;;;;;;;1999.90;999.90;;;;;;;;;;4949074;28;20120;-67
2023/11/01 16:26:45;;;;;;;1999.90;999.90;;;;;;;;;;4943598;28;20019;-71
2023/11/01 16:29:11;;;;;;;1999.90;999.90;;;;;;;;;;4945984;29;20039;-67
2023/11/01 16:31:37;;;;;;;1999.90;999.90;;;;;;;;;;4939374;29;20071;-70
2023/11/01 16:34:03;;;;;;;1999.90;999.90;;;;;;;;;;4943721;29;20039;-65
2023/11/01 16:36:29;;;;;;;1999.90;999.90;;;;;;;;;;4946972;28;20031;-69
2023/11/01 16:38:55;;;;;;;1999.90;999.90;;;;;;;;;;4944610;29;20023;-70
2023/11/01 16:41:21;;;;;;;1999.90;999.90;;;;;;;;;;4947504;28;20023;-69
2023/11/01 16:43:48;;;;;;;1999.90;999.90;;;;;;;;;;4940331;29;20205;-70
2023/11/01 16:46:14;;;;;;;1999.90;999.90;;;;;;;;;;4934978;29;20039;-69
2023/11/01 16:48:40;;;;;;;1999.90;999.90;;;;;;;;;;4935120;29;20099;-69
2023/11/01 16:51:08;;;;;;;1999.90;999.90;;;;;;;;;;4935185;29;20056;-66
2023/11/01 16:53:34;;;;;;;1999.90;999.90;;;;;;;;;;4934781;29;20032;-66
2023/11/01 16:56:00;;;;;;;1999.90;999.90;;;;;;;;;;4937662;29;20075;-68
2023/11/01 16:58:27;;;;;;;1999.90;999.90;;;;;;;;;;4935049;29;20039;-71
2023/11/01 17:00:54;;;;;;;1999.90;999.90;;;;;;;;;;4934919;29;20020;-72
2023/11/01 17:03:20;;;;;;;1999.90;999.90;;;;;;;;;;4937693;29;20451;-72
2023/11/01 17:05:46;;;;;;;1999.90;999.90;;;;;;;;;;4945814;28;20086;-70
2023/11/01 17:08:12;;;;;;;1999.90;999.90;;;;;;;;;;4943542;28;20035;-75
2023/11/01 17:10:38;;;;;;;1999.90;999.90;;;;;;;;;;4934950;29;20031;-71
2023/11/01 17:13:07;;;;;;;1999.90;999.90;;;;;;;;;;4945961;29;20032;-75
2023/11/01 17:15:35;;;;;;;1999.90;999.90;;;;;;;;;;4943175;29;20044;-67
2023/11/01 17:18:01;;;;;;;1999.90;999.90;;;;;;;;;;4934214;29;20023;-68
2023/11/01 17:20:27;;;;;;;1999.90;999.90;;;;;;;;;;4937767;29;20032;-67
2023/11/01 17:23:03;;;;;;;1999.90;999.90;;;;;;;;;;4934875;29;20031;-74
2023/11/01 17:25:32;;;;;;;1999.90;999.90;;;;;;;;;;4939117;29;20024;-72
2023/11/01 17:28:01;;;;;;;1999.90;999.90;;;;;;;;;;4934217;29;20071;-74